Time;durP1;ratioP1;P1;durP2;ratioP2;P2;SDS_P1;SDS_P2;PMS_P1;PMS_P2;Temp;Humidity;BMP_temperature;BMP_pressure;BME280_temperature;BME280_humidity;BME280_pressure;Samples;Min_cycle;Max_cycle;Signal;HPM_P1;HPM_P2
2022/07/28 00:00:21;;;;;;;6.70;1.27;;;;;;;;;;5052207;28;20281;-66
2022/07/28 00:02:46;;;;;;;4.05;1.40;;;;;;;;;;5034112;28;20233;-67
2022/07/28 00:05:12;;;;;;;4.65;1.33;;;;;;;;;;5052114;28;20231;-67
2022/07/28 00:07:37;;;;;;;4.25;1.30;;;;;;;;;;5052871;28;20294;-67
2022/07/28 00:10:02;;;;;;;7.88;1.20;;;;;;;;;;5051524;28;20207;-67
2022/07/28 00:12:28;;;;;;;3.15;1.10;;;;;;;;;;5052380;28;20265;-67
2022/07/28 00:14:53;;;;;;;4.95;1.15;;;;;;;;;;5052481;28;20726;-67
2022/07/28 00:17:18;;;;;;;6.75;1.10;;;;;;;;;;5051391;28;20215;-67
2022/07/28 00:19:44;;;;;;;5.30;1.40;;;;;;;;;;5052282;28;20207;-67
2022/07/28 00:22:09;;;;;;;5.40;1.30;;;;;;;;;;5051954;28;20215;-67
2022/07/28 00:24:36;;;;;;;6.25;1.23;;;;;;;;;;5051842;28;20207;-67
2022/07/28 00:27:02;;;;;;;5.45;1.35;;;;;;;;;;5051650;28;20220;-66
2022/07/28 00:29:27;;;;;;;5.97;1.38;;;;;;;;;;5051966;28;20575;-67
2022/07/28 00:31:52;;;;;;;6.13;1.30;;;;;;;;;;5052133;28;20249;-67
2022/07/28 00:34:18;;;;;;;4.22;1.20;;;;;;;;;;5051400;28;20207;-67
2022/07/28 00:36:43;;;;;;;4.32;1.80;;;;;;;;;;5051465;28;20570;-67
2022/07/28 00:39:08;;;;;;;4.68;1.42;;;;;;;;;;5051439;28;20214;-66
2022/07/28 00:41:35;;;;;;;5.35;1.30;;;;;;;;;;5051552;28;20658;-68
2022/07/28 00:44:00;;;;;;;2.83;1.35;;;;;;;;;;5046591;28;20211;-67
2022/07/28 00:46:25;;;;;;;2.80;1.42;;;;;;;;;;5030494;28;20249;-67
2022/07/28 00:48:52;;;;;;;3.42;1.20;;;;;;;;;;5022063;28;20226;-67
2022/07/28 00:51:17;;;;;;;4.55;1.05;;;;;;;;;;5026574;28;20238;-67
2022/07/28 00:53:43;;;;;;;4.05;1.08;;;;;;;;;;5030989;28;20686;-67
2022/07/28 00:56:08;;;;;;;5.10;1.30;;;;;;;;;;5025225;28;20212;-68
2022/07/28 00:58:35;;;;;;;4.68;1.40;;;;;;;;;;5018671;28;20208;-68
2022/07/28 01:01:00;;;;;;;3.00;1.20;;;;;;;;;;5029199;28;20272;-68
2022/07/28 01:03:25;;;;;;;4.53;1.20;;;;;;;;;;5013347;28;20294;-68
2022/07/28 01:05:54;;;;;;;4.72;1.20;;;;;;;;;;5017511;28;20274;-67
2022/07/28 01:08:28;;;;;;;4.32;1.48;;;;;;;;;;5040997;28;20239;-67
2022/07/28 01:10:57;;;;;;;4.70;1.20;;;;;;;;;;5033647;28;20218;-67
2022/07/28 01:13:28;;;;;;;9.95;1.38;;;;;;;;;;5037027;28;20679;-67
2022/07/28 01:15:54;;;;;;;4.10;1.13;;;;;;;;;;5027199;28;20212;-67
2022/07/28 01:18:20;;;;;;;5.78;1.50;;;;;;;;;;5020467;28;20217;-67
2022/07/28 01:20:47;;;;;;;4.88;1.20;;;;;;;;;;5029932;28;20241;-67
2022/07/28 01:23:18;;;;;;;3.67;1.30;;;;;;;;;;5013168;28;20214;-67
2022/07/28 01:25:45;;;;;;;6.47;1.27;;;;;;;;;;5017655;28;20220;-67
2022/07/28 01:28:15;;;;;;;4.35;1.20;;;;;;;;;;5015111;28;20214;-67
2022/07/28 01:30:41;;;;;;;7.18;1.35;;;;;;;;;;5020248;28;20222;-67
2022/07/28 01:33:09;;;;;;;5.80;1.35;;;;;;;;;;5022197;28;20211;-67
2022/07/28 01:35:36;;;;;;;5.68;1.10;;;;;;;;;;5020491;28;20211;-67
2022/07/28 01:38:02;;;;;;;4.75;1.15;;;;;;;;;;5005452;28;20208;-67
2022/07/28 01:40:29;;;;;;;5.20;1.20;;;;;;;;;;5014911;28;20290;-67
2022/07/28 01:42:55;;;;;;;4.43;1.20;;;;;;;;;;5022556;28;20317;-67
2022/07/28 01:45:21;;;;;;;5.70;1.20;;;;;;;;;;5012366;28;20230;-67
2022/07/28 01:47:48;;;;;;;2.38;1.17;;;;;;;;;;5012616;28;20220;-67
2022/07/28 01:50:13;;;;;;;5.65;1.05;;;;;;;;;;5007452;28;20734;-67
2022/07/28 01:52:40;;;;;;;4.32;1.33;;;;;;;;;;5037402;28;20234;-67
2022/07/28 01:55:05;;;;;;;5.25;1.20;;;;;;;;;;5024983;28;20748;-67
2022/07/28 01:57:30;;;;;;;6.38;1.30;;;;;;;;;;5027096;28;20211;-67
2022/07/28 01:59:56;;;;;;;5.43;1.33;;;;;;;;;;5026186;28;20345;-67
2022/07/28 02:02:21;;;;;;;4.97;1.08;;;;;;;;;;5024817;28;20261;-67
2022/07/28 02:04:47;;;;;;;4.95;1.30;;;;;;;;;;5026098;28;20234;-67
2022/07/28 02:07:12;;;;;;;4.30;1.40;;;;;;;;;;5021662;28;20855;-67
2022/07/28 02:09:38;;;;;;;5.47;1.50;;;;;;;;;;5018112;28;20253;-67
2022/07/28 02:12:03;;;;;;;4.78;1.50;;;;;;;;;;5015115;28;20722;-67
2022/07/28 02:14:28;;;;;;;6.38;1.30;;;;;;;;;;5023180;28;20305;-67
2022/07/28 02:16:56;;;;;;;4.47;1.30;;;;;;;;;;5043704;28;20211;-67
2022/07/28 02:19:21;;;;;;;5.82;1.60;;;;;;;;;;5026410;28;20203;-67
2022/07/28 02:21:47;;;;;;;3.92;1.50;;;;;;;;;;5044042;28;20284;-66
2022/07/28 02:24:12;;;;;;;4.53;1.55;;;;;;;;;;5025653;28;20294;-66
2022/07/28 02:26:40;;;;;;;7.03;1.70;;;;;;;;;;5044235;28;20349;-66
2022/07/28 02:29:05;;;;;;;4.78;1.77;;;;;;;;;;5032911;28;20208;-66
2022/07/28 02:31:33;;;;;;;4.32;1.60;;;;;;;;;;5018326;28;20214;-66
2022/07/28 02:33:59;;;;;;;3.50;1.50;;;;;;;;;;5018306;28;20268;-66
2022/07/28 02:36:25;;;;;;;4.80;1.60;;;;;;;;;;5020830;28;20215;-66
2022/07/28 02:38:50;;;;;;;4.00;1.40;;;;;;;;;;5023324;28;20253;-66
2022/07/28 02:41:18;;;;;;;6.07;1.95;;;;;;;;;;5021940;28;20211;-66
2022/07/28 02:43:45;;;;;;;4.93;1.77;;;;;;;;;;5042999;28;20235;-66
2022/07/28 02:46:10;;;;;;;6.03;1.70;;;;;;;;;;5043402;28;20231;-66
2022/07/28 02:48:35;;;;;;;4.78;1.67;;;;;;;;;;5043902;28;20210;-67
2022/07/28 02:51:01;;;;;;;4.72;1.50;;;;;;;;;;5038490;28;20238;-66
2022/07/28 02:53:26;;;;;;;6.13;1.88;;;;;;;;;;5026554;28;20862;-65
2022/07/28 02:55:51;;;;;;;6.40;1.73;;;;;;;;;;5017901;28;20628;-66
2022/07/28 02:58:17;;;;;;;3.80;1.70;;;;;;;;;;5035340;28;20251;-66
2022/07/28 03:00:43;;;;;;;4.70;1.60;;;;;;;;;;5040734;28;20334;-66
2022/07/28 03:03:08;;;;;;;4.78;1.90;;;;;;;;;;5010214;28;20247;-66
2022/07/28 03:05:33;;;;;;;4.70;1.70;;;;;;;;;;5025009;28;20748;-66
2022/07/28 03:07:59;;;;;;;5.70;1.80;;;;;;;;;;5012033;28;20611;-66
2022/07/28 03:10:25;;;;;;;6.55;2.20;;;;;;;;;;5029084;28;20239;-67
2022/07/28 03:12:50;;;;;;;5.20;2.05;;;;;;;;;;5034111;28;20257;-67
2022/07/28 03:15:16;;;;;;;5.13;1.90;;;;;;;;;;5033590;28;20202;-67
2022/07/28 03:17:41;;;;;;;5.75;2.03;;;;;;;;;;5032078;28;20229;-67
2022/07/28 03:20:08;;;;;;;7.97;1.70;;;;;;;;;;5026985;28;20331;-66
2022/07/28 03:22:33;;;;;;;4.47;1.80;;;;;;;;;;5041190;28;20231;-67
2022/07/28 03:24:58;;;;;;;5.05;1.90;;;;;;;;;;5039366;28;20224;-67
2022/07/28 03:27:26;;;;;;;5.57;1.75;;;;;;;;;;5040237;28;20284;-66
2022/07/28 03:29:53;;;;;;;6.80;2.08;;;;;;;;;;5030356;28;20211;-65
2022/07/28 03:32:19;;;;;;;7.38;1.70;;;;;;;;;;5041952;28;20215;-66
2022/07/28 03:34:44;;;;;;;5.32;1.38;;;;;;;;;;5025093;28;20210;-66
2022/07/28 03:37:11;;;;;;;5.70;1.52;;;;;;;;;;5017584;28;20215;-66
2022/07/28 03:39:37;;;;;;;4.88;1.80;;;;;;;;;;5015439;28;20212;-66
2022/07/28 03:42:03;;;;;;;4.38;1.60;;;;;;;;;;5006386;28;20211;-66
2022/07/28 03:44:28;;;;;;;5.40;1.50;;;;;;;;;;5021547;28;20269;-66
2022/07/28 03:46:53;;;;;;;6.60;1.90;;;;;;;;;;5021456;28;20207;-66
2022/07/28 03:49:19;;;;;;;4.55;2.03;;;;;;;;;;5008524;28;20306;-66
2022/07/28 03:51:44;;;;;;;5.88;1.90;;;;;;;;;;5039043;28;20590;-66
2022/07/28 03:54:10;;;;;;;7.22;1.88;;;;;;;;;;5039251;28;20493;-68
2022/07/28 03:56:35;;;;;;;3.92;1.60;;;;;;;;;;5042616;28;20207;-67
2022/07/28 03:59:00;;;;;;;7.75;2.08;;;;;;;;;;5024647;28;20219;-66
2022/07/28 04:01:25;;;;;;;100.60;6.35;;;;;;;;;;5014074;28;20972;-66
2022/07/28 04:03:51;;;;;;;7.57;1.83;;;;;;;;;;5020280;28;20214;-67
2022/07/28 04:06:16;;;;;;;14.40;3.00;;;;;;;;;;5034874;28;20229;-66
2022/07/28 04:08:42;;;;;;;5.55;1.70;;;;;;;;;;5024165;28;20254;-67
2022/07/28 04:11:07;;;;;;;6.13;1.98;;;;;;;;;;5030722;28;20234;-66
2022/07/28 04:13:35;;;;;;;6.63;1.70;;;;;;;;;;5042687;28;20636;-66
2022/07/28 04:16:00;;;;;;;7.47;1.83;;;;;;;;;;5019259;28;20570;-66
2022/07/28 04:18:26;;;;;;;8.70;1.80;;;;;;;;;;5022515;28;20208;-66
2022/07/28 04:20:51;;;;;;;10.60;1.90;;;;;;;;;;5022797;28;20284;-66
2022/07/28 04:23:18;;;;;;;4.63;1.70;;;;;;;;;;5020389;28;20215;-67
2022/07/28 04:25:45;;;;;;;8.15;1.73;;;;;;;;;;5034381;28;20312;-67
2022/07/28 04:28:10;;;;;;;7.85;1.98;;;;;;;;;;5029277;28;20203;-66
2022/07/28 04:30:35;;;;;;;7.35;1.70;;;;;;;;;;5021240;28;20222;-66
2022/07/28 04:33:01;;;;;;;7.53;1.98;;;;;;;;;;5022084;28;21209;-66
2022/07/28 04:35:27;;;;;;;7.22;2.00;;;;;;;;;;5035861;28;20207;-67
2022/07/28 04:37:57;;;;;;;7.85;2.20;;;;;;;;;;5046870;28;20419;-64
2022/07/28 04:40:22;;;;;;;8.10;1.90;;;;;;;;;;5050729;28;20404;-66
2022/07/28 04:42:47;;;;;;;4.97;1.77;;;;;;;;;;5051359;28;20498;-68
2022/07/28 04:45:13;;;;;;;13.60;2.60;;;;;;;;;;5049328;28;20927;-67
2022/07/28 04:47:38;;;;;;;5.15;1.80;;;;;;;;;;5050709;28;20565;-69
2022/07/28 04:50:04;;;;;;;4.65;2.10;;;;;;;;;;5058056;28;20289;-68
2022/07/28 04:52:30;;;;;;;6.70;1.90;;;;;;;;;;5067515;28;20202;-66
2022/07/28 04:54:55;;;;;;;6.78;2.15;;;;;;;;;;5031935;28;20203;-67
2022/07/28 04:57:21;;;;;;;6.45;2.10;;;;;;;;;;5029282;28;20287;-66
2022/07/28 04:59:47;;;;;;;10.07;2.13;;;;;;;;;;5030293;28;20238;-65
2022/07/28 05:02:12;;;;;;;7.50;2.25;;;;;;;;;;5030078;28;20235;-65
2022/07/28 05:04:38;;;;;;;8.10;1.90;;;;;;;;;;5033875;28;20231;-65
2022/07/28 05:07:04;;;;;;;7.85;2.58;;;;;;;;;;5069478;28;20228;-65
2022/07/28 05:09:30;;;;;;;7.10;2.10;;;;;;;;;;5071103;28;20425;-65
2022/07/28 05:11:55;;;;;;;8.18;2.30;;;;;;;;;;5066193;28;20217;-66
2022/07/28 05:14:20;;;;;;;6.45;2.03;;;;;;;;;;5068130;28;20214;-65
2022/07/28 05:16:46;;;;;;;5.40;1.75;;;;;;;;;;5050235;28;20202;-66
2022/07/28 05:19:11;;;;;;;8.52;1.92;;;;;;;;;;5050268;28;20215;-66
2022/07/28 05:21:36;;;;;;;9.00;2.83;;;;;;;;;;5051506;28;20260;-66
2022/07/28 05:24:02;;;;;;;5.75;2.05;;;;;;;;;;5049808;28;20217;-64
2022/07/28 05:26:29;;;;;;;12.10;1.85;;;;;;;;;;5049885;28;20715;-63
2022/07/28 05:28:55;;;;;;;10.90;1.80;;;;;;;;;;5055009;28;20261;-64
2022/07/28 05:31:20;;;;;;;4.25;1.80;;;;;;;;;;5059705;28;20225;-64
2022/07/28 05:33:45;;;;;;;8.25;2.10;;;;;;;;;;5063472;28;20214;-64
2022/07/28 05:36:11;;;;;;;4.55;1.60;;;;;;;;;;5060764;28;20268;-64
2022/07/28 05:38:36;;;;;;;6.60;1.80;;;;;;;;;;5064992;28;20614;-63
2022/07/28 05:41:01;;;;;;;6.32;1.67;;;;;;;;;;5061732;28;20286;-63
2022/07/28 05:43:27;;;;;;;8.05;1.80;;;;;;;;;;5055296;28;20218;-64
2022/07/28 05:45:54;;;;;;;5.07;1.80;;;;;;;;;;5055244;28;20211;-62
2022/07/28 05:48:20;;;;;;;7.70;1.63;;;;;;;;;;5054146;28;20250;-61
2022/07/28 05:50:45;;;;;;;8.65;1.75;;;;;;;;;;5037333;28;20764;-61
2022/07/28 05:53:11;;;;;;;6.22;2.03;;;;;;;;;;5053946;28;20222;-63
2022/07/28 05:55:36;;;;;;;6.43;2.00;;;;;;;;;;5054615;28;20223;-64
2022/07/28 05:58:02;;;;;;;5.93;1.60;;;;;;;;;;5054664;28;20214;-62
2022/07/28 06:00:27;;;;;;;7.55;1.70;;;;;;;;;;5053393;28;20238;-62
2022/07/28 06:02:52;;;;;;;9.23;1.90;;;;;;;;;;5036372;28;20654;-63
2022/07/28 06:05:19;;;;;;;6.38;1.70;;;;;;;;;;5036534;28;20665;-64
2022/07/28 06:07:44;;;;;;;7.43;1.70;;;;;;;;;;5058523;28;20303;-62
2022/07/28 06:10:11;;;;;;;7.32;1.70;;;;;;;;;;5063316;28;20285;-62
2022/07/28 06:12:38;;;;;;;6.45;1.48;;;;;;;;;;5054736;28;20219;-62
2022/07/28 06:15:04;;;;;;;5.93;1.52;;;;;;;;;;5059200;28;20236;-62
2022/07/28 06:17:29;;;;;;;6.65;1.77;;;;;;;;;;5059178;28;20210;-62
2022/07/28 06:19:54;;;;;;;7.70;1.40;;;;;;;;;;5057228;28;20210;-62
2022/07/28 06:22:20;;;;;;;9.50;2.03;;;;;;;;;;5058439;28;20565;-62
2022/07/28 06:24:45;;;;;;;5.45;1.98;;;;;;;;;;5054636;28;20207;-63
2022/07/28 06:27:11;;;;;;;7.10;2.00;;;;;;;;;;5054102;28;20211;-62
2022/07/28 06:29:36;;;;;;;5.68;1.60;;;;;;;;;;5053760;28;20234;-63
2022/07/28 06:32:01;;;;;;;7.50;1.40;;;;;;;;;;5054251;28;20247;-62
2022/07/28 06:34:27;;;;;;;8.38;1.55;;;;;;;;;;5056249;28;20583;-65
2022/07/28 06:36:52;;;;;;;6.32;1.48;;;;;;;;;;5053643;28;20211;-63
2022/07/28 06:39:17;;;;;;;5.95;1.60;;;;;;;;;;5049138;28;20222;-62
2022/07/28 06:41:43;;;;;;;4.35;1.10;;;;;;;;;;5054219;28;20207;-62
2022/07/28 06:44:09;;;;;;;5.57;1.63;;;;;;;;;;5050436;28;20223;-64
2022/07/28 06:46:34;;;;;;;5.50;1.17;;;;;;;;;;5035577;28;20222;-64
2022/07/28 06:48:59;;;;;;;8.38;1.50;;;;;;;;;;5052291;28;20207;-63
2022/07/28 06:51:25;;;;;;;7.45;1.65;;;;;;;;;;5051212;28;20219;-63
2022/07/28 06:53:50;;;;;;;4.22;1.20;;;;;;;;;;5052270;28;20214;-62
2022/07/28 06:56:15;;;;;;;4.72;1.08;;;;;;;;;;5034617;28;20233;-63
2022/07/28 06:58:41;;;;;;;7.90;1.20;;;;;;;;;;5052324;28;20218;-62
2022/07/28 07:01:07;;;;;;;4.20;0.98;;;;;;;;;;5052507;28;20211;-62
2022/07/28 07:03:32;;;;;;;4.40;1.20;;;;;;;;;;5052069;28;20227;-62
2022/07/28 07:05:58;;;;;;;5.20;1.25;;;;;;;;;;5052720;28;20215;-61
2022/07/28 07:08:23;;;;;;;3.35;0.88;;;;;;;;;;5051960;28;20289;-62
2022/07/28 07:10:48;;;;;;;6.55;1.30;;;;;;;;;;5052085;28;20207;-62
2022/07/28 07:13:14;;;;;;;5.93;1.20;;;;;;;;;;5052182;28;20584;-62
2022/07/28 07:15:39;;;;;;;8.18;1.10;;;;;;;;;;5052707;28;20231;-62
2022/07/28 07:18:04;;;;;;;4.07;0.98;;;;;;;;;;5051370;28;20221;-63
2022/07/28 07:20:30;;;;;;;3.55;1.25;;;;;;;;;;5052366;28;20264;-62
2022/07/28 07:22:55;;;;;;;4.78;1.40;;;;;;;;;;5052537;28;20250;-62
2022/07/28 07:25:20;;;;;;;4.55;0.82;;;;;;;;;;5051228;28;20314;-62
2022/07/28 07:27:46;;;;;;;4.05;1.25;;;;;;;;;;5052460;28;20619;-61
2022/07/28 07:30:12;;;;;;;6.93;1.00;;;;;;;;;;5052014;28;20261;-62
2022/07/28 07:32:38;;;;;;;6.40;1.00;;;;;;;;;;5051793;28;20215;-62
2022/07/28 07:35:04;;;;;;;31.65;2.47;;;;;;;;;;5051986;28;20207;-62
2022/07/28 07:37:31;;;;;;;5.80;0.90;;;;;;;;;;5034081;28;20320;-61
2022/07/28 07:39:56;;;;;;;3.95;0.88;;;;;;;;;;5051515;28;20207;-62
2022/07/28 07:42:22;;;;;;;5.82;0.90;;;;;;;;;;5051535;28;20212;-61
2022/07/28 07:44:47;;;;;;;3.10;0.90;;;;;;;;;;5052082;28;20305;-62
2022/07/28 07:47:13;;;;;;;6.97;1.23;;;;;;;;;;5050725;28;20245;-62
2022/07/28 07:49:39;;;;;;;3.13;0.90;;;;;;;;;;5052153;28;20260;-60
2022/07/28 07:52:05;;;;;;;7.72;0.85;;;;;;;;;;5050045;28;20264;-61
2022/07/28 07:54:30;;;;;;;3.22;0.70;;;;;;;;;;5032946;28;20206;-61
2022/07/28 07:56:55;;;;;;;4.28;1.10;;;;;;;;;;5051838;28;20712;-61
2022/07/28 07:59:21;;;;;;;4.07;0.90;;;;;;;;;;5051188;28;20207;-61
2022/07/28 08:01:49;;;;;;;3.20;0.75;;;;;;;;;;5068403;28;20217;-61
2022/07/28 08:04:15;;;;;;;14.73;1.33;;;;;;;;;;5070544;28;20580;-61
2022/07/28 08:06:41;;;;;;;3.67;1.00;;;;;;;;;;5070424;28;20283;-62
2022/07/28 08:09:07;;;;;;;5.13;0.90;;;;;;;;;;5070905;28;20735;-62
2022/07/28 08:11:33;;;;;;;2.08;0.93;;;;;;;;;;5071456;28;20221;-62
2022/07/28 08:13:58;;;;;;;5.53;0.80;;;;;;;;;;5070579;28;20202;-61
2022/07/28 08:16:23;;;;;;;4.00;0.70;;;;;;;;;;5052594;28;20215;-61
2022/07/28 08:18:49;;;;;;;2.67;0.85;;;;;;;;;;5051343;28;20211;-60
2022/07/28 08:21:15;;;;;;;3.58;0.90;;;;;;;;;;5050280;28;20215;-61
2022/07/28 08:23:40;;;;;;;6.80;1.30;;;;;;;;;;5050976;28;20264;-60
2022/07/28 08:26:06;;;;;;;4.60;0.70;;;;;;;;;;5050855;28;20219;-61
2022/07/28 08:28:32;;;;;;;1.77;0.73;;;;;;;;;;5050363;28;20269;-60
2022/07/28 08:30:57;;;;;;;3.58;1.00;;;;;;;;;;5044763;28;20219;-61
2022/07/28 08:33:22;;;;;;;3.47;0.77;;;;;;;;;;5034788;28;20215;-61
2022/07/28 08:35:48;;;;;;;2.90;0.73;;;;;;;;;;5030509;28;20697;-61
2022/07/28 08:38:15;;;;;;;3.17;0.93;;;;;;;;;;5042602;28;20318;-62
2022/07/28 08:40:40;;;;;;;5.20;0.70;;;;;;;;;;5050949;28;20207;-61
2022/07/28 08:43:14;;;;;;;2.90;0.80;;;;;;;;;;5049423;28;20285;-62
2022/07/28 08:45:39;;;;;;;3.15;1.08;;;;;;;;;;5031595;28;20215;-61
2022/07/28 08:48:05;;;;;;;4.40;0.90;;;;;;;;;;5032515;28;20683;-61
2022/07/28 08:50:30;;;;;;;3.70;0.90;;;;;;;;;;5050148;28;20206;-61
2022/07/28 08:52:56;;;;;;;4.28;0.90;;;;;;;;;;5032826;28;20240;-61
2022/07/28 08:55:21;;;;;;;3.28;0.73;;;;;;;;;;5050310;28;20207;-62
2022/07/28 08:57:47;;;;;;;4.78;0.75;;;;;;;;;;5032379;28;20207;-61
2022/07/28 09:00:12;;;;;;;6.15;0.88;;;;;;;;;;5032323;28;20219;-62
2022/07/28 09:02:40;;;;;;;5.22;0.80;;;;;;;;;;5050403;28;20230;-61
2022/07/28 09:05:05;;;;;;;4.40;0.60;;;;;;;;;;5048647;28;20223;-63
2022/07/28 09:07:31;;;;;;;2.38;1.00;;;;;;;;;;5050496;28;20218;-61
2022/07/28 09:09:56;;;;;;;4.20;0.90;;;;;;;;;;5032447;28;20682;-62
2022/07/28 09:12:21;;;;;;;3.33;0.70;;;;;;;;;;5050128;28;20214;-62
2022/07/28 09:14:47;;;;;;;6.47;1.00;;;;;;;;;;5047111;28;20222;-62
2022/07/28 09:17:12;;;;;;;3.25;1.00;;;;;;;;;;5030773;28;20206;-62
2022/07/28 09:19:37;;;;;;;4.45;0.88;;;;;;;;;;5050789;28;20203;-62
2022/07/28 09:22:03;;;;;;;3.58;0.90;;;;;;;;;;5032075;28;20238;-63
2022/07/28 09:24:46;;;;;;;1.75;0.73;;;;;;;;;;5031906;28;20293;-62
2022/07/28 09:27:12;;;;;;;5.15;0.65;;;;;;;;;;5050050;28;20215;-62
2022/07/28 09:29:39;;;;;;;3.38;0.77;;;;;;;;;;5020978;28;20646;-61
2022/07/28 09:32:04;;;;;;;53.17;3.13;;;;;;;;;;5029515;28;20200;-62
2022/07/28 09:34:40;;;;;;;4.35;1.00;;;;;;;;;;5013122;28;20217;-61
2022/07/28 09:37:05;;;;;;;7.80;1.10;;;;;;;;;;5033528;28;20230;-62
2022/07/28 09:39:32;;;;;;;3.42;0.77;;;;;;;;;;5031811;28;20249;-61
2022/07/28 09:41:57;;;;;;;2.85;1.00;;;;;;;;;;5050516;28;20207;-62
2022/07/28 09:44:23;;;;;;;3.20;0.90;;;;;;;;;;5049873;28;20225;-61
2022/07/28 09:46:48;;;;;;;4.78;0.77;;;;;;;;;;5049394;28;20223;-61
2022/07/28 09:49:13;;;;;;;3.65;0.80;;;;;;;;;;5049277;28;20211;-62
2022/07/28 09:51:39;;;;;;;1.92;0.77;;;;;;;;;;5049682;28;20589;-62
2022/07/28 09:54:06;;;;;;;3.25;0.85;;;;;;;;;;5030959;28;20595;-63
2022/07/28 09:56:31;;;;;;;4.00;0.82;;;;;;;;;;5050289;28;20639;-63
2022/07/28 09:58:58;;;;;;;2.97;0.77;;;;;;;;;;5034663;28;20210;-62
2022/07/28 10:01:23;;;;;;;1.67;0.70;;;;;;;;;;5046152;28;20298;-63
2022/07/28 10:03:50;;;;;;;2.92;0.90;;;;;;;;;;5050167;28;20318;-64
2022/07/28 10:06:15;;;;;;;2.40;0.60;;;;;;;;;;5049420;28;20223;-64
2022/07/28 10:08:43;;;;;;;2.65;0.90;;;;;;;;;;5050251;28;20211;-64
2022/07/28 10:11:08;;;;;;;9.07;1.20;;;;;;;;;;5032300;28;20244;-63
2022/07/28 10:13:34;;;;;;;2.45;0.80;;;;;;;;;;5050060;28;20218;-63
2022/07/28 10:16:12;;;;;;;1.88;0.70;;;;;;;;;;5053295;28;20238;-64
2022/07/28 10:18:39;;;;;;;1.42;0.57;;;;;;;;;;5053967;28;20454;-64
2022/07/28 10:21:06;;;;;;;3.67;0.90;;;;;;;;;;5053107;28;20628;-64
2022/07/28 10:23:32;;;;;;;1.88;0.70;;;;;;;;;;5052985;28;20618;-64
2022/07/28 10:25:57;;;;;;;1.63;0.60;;;;;;;;;;5052962;28;20231;-64
2022/07/28 10:28:23;;;;;;;3.60;0.90;;;;;;;;;;5051782;28;20662;-64
2022/07/28 10:30:48;;;;;;;2.08;0.90;;;;;;;;;;5035038;28;20225;-64
2022/07/28 10:33:14;;;;;;;2.75;0.70;;;;;;;;;;5052298;28;20211;-65
2022/07/28 10:35:39;;;;;;;4.03;1.23;;;;;;;;;;5052100;28;20218;-65
2022/07/28 10:38:09;;;;;;;1.20;0.40;;;;;;;;;;5052154;28;20214;-64
2022/07/28 10:40:35;;;;;;;3.50;0.65;;;;;;;;;;5051703;28;20219;-63
2022/07/28 10:43:00;;;;;;;2.25;0.75;;;;;;;;;;5052479;28;20211;-66
2022/07/28 10:45:26;;;;;;;3.83;1.00;;;;;;;;;;5062047;28;20235;-64
2022/07/28 10:47:52;;;;;;;3.17;1.10;;;;;;;;;;5056265;28;20207;-64
2022/07/28 10:50:18;;;;;;;3.05;0.68;;;;;;;;;;5051850;28;20273;-64
2022/07/28 10:52:44;;;;;;;2.38;0.85;;;;;;;;;;5053363;28;20215;-63
2022/07/28 10:55:22;;;;;;;4.32;0.95;;;;;;;;;;5034580;28;20294;-63
2022/07/28 10:58:07;;;;;;;2.35;0.50;;;;;;;;;;5034507;28;20298;-64
2022/07/28 11:00:32;;;;;;;1.98;0.60;;;;;;;;;;5053061;28;20290;-64
2022/07/28 11:03:00;;;;;;;3.40;0.93;;;;;;;;;;5052334;28;20243;-62
2022/07/28 11:05:26;;;;;;;4.80;0.80;;;;;;;;;;5052718;28;20226;-65
2022/07/28 11:07:52;;;;;;;4.32;0.75;;;;;;;;;;5052941;28;20277;-65
2022/07/28 11:10:18;;;;;;;3.67;1.20;;;;;;;;;;5051824;28;20300;-65
2022/07/28 11:12:44;;;;;;;2.05;0.80;;;;;;;;;;5035358;28;20226;-65
2022/07/28 11:15:37;;;;;;;3.72;0.90;;;;;;;;;;5052214;28;20234;-65
2022/07/28 11:18:02;;;;;;;4.20;0.88;;;;;;;;;;5033988;28;20211;-66
2022/07/28 11:20:46;;;;;;;6.22;1.50;;;;;;;;;;5053045;28;20564;-66
2022/07/28 11:23:47;;;;;;;4.30;0.70;;;;;;;;;;5052348;28;20290;-66
2022/07/28 11:26:18;;;;;;;3.15;0.77;;;;;;;;;;5051560;28;20223;-65
2022/07/28 11:29:06;;;;;;;5.30;1.30;;;;;;;;;;5049007;28;20269;-64
2022/07/28 11:31:44;;;;;;;2.35;0.80;;;;;;;;;;5031727;28;20207;-65
2022/07/28 11:34:10;;;;;;;2.67;0.65;;;;;;;;;;5032456;28;20211;-65
2022/07/28 11:36:53;;;;;;;2.65;0.65;;;;;;;;;;5032504;28;20212;-65
2022/07/28 11:39:20;;;;;;;3.75;0.70;;;;;;;;;;5031732;28;20663;-65
2022/07/28 11:41:46;;;;;;;2.05;0.57;;;;;;;;;;5032590;28;20254;-64
2022/07/28 11:44:24;;;;;;;2.67;0.70;;;;;;;;;;5041739;28;20219;-65
2022/07/28 11:46:49;;;;;;;6.45;1.15;;;;;;;;;;5050752;28;20211;-64
2022/07/28 11:49:15;;;;;;;5.03;0.80;;;;;;;;;;5034052;28;20219;-65
2022/07/28 11:51:41;;;;;;;2.92;0.80;;;;;;;;;;5033887;28;20211;-64
2022/07/28 11:54:14;;;;;;;2.92;0.70;;;;;;;;;;5033542;28;20697;-64
2022/07/28 11:56:39;;;;;;;30.58;1.90;;;;;;;;;;5034259;28;20218;-65
2022/07/28 11:59:05;;;;;;;2.25;0.70;;;;;;;;;;5051048;28;20207;-65
2022/07/28 12:01:30;;;;;;;2.95;0.80;;;;;;;;;;5052301;28;20627;-63
2022/07/28 12:03:57;;;;;;;2.65;0.80;;;;;;;;;;5051827;28;20223;-64
2022/07/28 12:06:23;;;;;;;2.03;0.50;;;;;;;;;;5050485;28;20223;-64
2022/07/28 12:08:50;;;;;;;2.60;0.63;;;;;;;;;;5034269;28;20415;-64
2022/07/28 12:11:15;;;;;;;5.97;1.05;;;;;;;;;;5051659;28;20211;-64
2022/07/28 12:13:40;;;;;;;5.05;0.90;;;;;;;;;;5050625;28;20214;-64
2022/07/28 12:16:06;;;;;;;4.82;0.70;;;;;;;;;;5026692;28;20215;-64
2022/07/28 12:18:31;;;;;;;4.78;0.90;;;;;;;;;;5051754;28;20574;-64
2022/07/28 12:20:56;;;;;;;8.75;1.00;;;;;;;;;;5033083;28;20241;-63
2022/07/28 12:23:28;;;;;;;1.73;0.70;;;;;;;;;;5033663;28;20682;-64
2022/07/28 12:25:54;;;;;;;4.38;0.70;;;;;;;;;;5051753;28;20682;-64
2022/07/28 12:28:21;;;;;;;3.47;0.85;;;;;;;;;;5050482;28;20230;-63
2022/07/28 12:30:48;;;;;;;3.28;0.80;;;;;;;;;;5051233;28;20218;-64
2022/07/28 12:33:14;;;;;;;5.30;0.93;;;;;;;;;;5051499;28;20203;-65
2022/07/28 12:35:40;;;;;;;2.90;0.90;;;;;;;;;;5032537;28;20549;-64
2022/07/28 12:38:05;;;;;;;5.53;0.90;;;;;;;;;;5050556;28;20265;-64
2022/07/28 12:40:30;;;;;;;5.60;0.93;;;;;;;;;;5051531;28;20258;-64
2022/07/28 12:42:56;;;;;;;4.22;0.80;;;;;;;;;;5032917;28;20238;-63
2022/07/28 12:45:21;;;;;;;3.75;0.70;;;;;;;;;;5032986;28;20261;-64
2022/07/28 12:47:46;;;;;;;4.45;0.70;;;;;;;;;;5033485;28;20199;-65
2022/07/28 12:50:13;;;;;;;3.97;1.13;;;;;;;;;;5050001;28;20239;-64
2022/07/28 12:52:39;;;;;;;2.55;0.70;;;;;;;;;;5051540;28;20254;-65
2022/07/28 12:55:06;;;;;;;4.22;0.85;;;;;;;;;;5050268;28;20219;-65
2022/07/28 12:57:41;;;;;;;2.92;0.80;;;;;;;;;;5033224;28;20609;-65
2022/07/28 13:00:07;;;;;;;4.80;1.00;;;;;;;;;;5050535;28;20207;-65
2022/07/28 13:02:34;;;;;;;6.60;0.90;;;;;;;;;;5036644;28;20238;-64
2022/07/28 13:04:59;;;;;;;1.95;0.55;;;;;;;;;;5027100;28;20896;-65
2022/07/28 13:07:24;;;;;;;8.95;1.20;;;;;;;;;;5036161;28;20302;-64
2022/07/28 13:10:09;;;;;;;3.05;0.82;;;;;;;;;;5037981;28;20233;-63
2022/07/28 13:12:34;;;;;;;3.63;0.57;;;;;;;;;;5011283;28;20275;-64
2022/07/28 13:15:01;;;;;;;2.58;0.80;;;;;;;;;;5025436;28;20220;-70
2022/07/28 13:17:30;;;;;;;3.80;0.80;;;;;;;;;;5025385;28;20207;-70
2022/07/28 13:20:02;;;;;;;2.67;0.80;;;;;;;;;;5032643;28;20266;-74
2022/07/28 13:22:28;;;;;;;2.92;1.00;;;;;;;;;;5025553;28;20211;-68
2022/07/28 13:24:55;;;;;;;4.65;1.00;;;;;;;;;;5023670;28;20269;-70
2022/07/28 13:27:21;;;;;;;6.13;1.02;;;;;;;;;;5036381;28;20349;-69
2022/07/28 13:29:46;;;;;;;4.80;1.08;;;;;;;;;;5024235;28;20602;-69
2022/07/28 13:32:12;;;;;;;7.25;0.98;;;;;;;;;;5016850;28;20247;-68
2022/07/28 13:34:37;;;;;;;3.83;0.88;;;;;;;;;;5025115;28;20239;-69
2022/07/28 13:37:03;;;;;;;3.78;0.82;;;;;;;;;;5031352;28;20215;-68
2022/07/28 13:39:28;;;;;;;2.15;0.80;;;;;;;;;;5043629;28;20229;-69
2022/07/28 13:41:53;;;;;;;2.72;0.80;;;;;;;;;;5045072;28;20648;-68
2022/07/28 13:44:19;;;;;;;8.43;1.08;;;;;;;;;;5043007;28;20222;-68
2022/07/28 13:46:44;;;;;;;2.35;0.80;;;;;;;;;;5030423;28;20231;-68
2022/07/28 13:49:09;;;;;;;3.67;0.80;;;;;;;;;;5001934;28;20265;-68
2022/07/28 13:51:35;;;;;;;3.88;0.80;;;;;;;;;;5020345;28;20215;-68
2022/07/28 13:54:00;;;;;;;5.80;1.02;;;;;;;;;;5020864;28;20770;-70
2022/07/28 13:56:26;;;;;;;2.78;1.10;;;;;;;;;;5026621;28;20601;-72
2022/07/28 13:58:51;;;;;;;1.92;0.60;;;;;;;;;;5028453;28;20679;-71
2022/07/28 14:01:17;;;;;;;2.45;0.82;;;;;;;;;;5028808;28;20681;-72
2022/07/28 14:03:42;;;;;;;6.75;1.10;;;;;;;;;;5029054;28;20224;-78
2022/07/28 14:06:09;;;;;;;5.05;1.00;;;;;;;;;;5044758;28;20215;-77
2022/07/28 14:08:34;;;;;;;8.90;1.17;;;;;;;;;;5030986;28;20211;-73
2022/07/28 14:11:00;;;;;;;7.72;1.42;;;;;;;;;;5030695;28;20404;-73
2022/07/28 14:13:26;;;;;;;8.35;1.15;;;;;;;;;;5026678;28;20217;-74
2022/07/28 14:15:51;;;;;;;4.72;0.77;;;;;;;;;;5026879;28;20207;-70
2022/07/28 14:18:16;;;;;;;6.97;1.08;;;;;;;;;;5023661;28;20211;-70
2022/07/28 14:20:42;;;;;;;2.78;0.77;;;;;;;;;;5028818;28;20306;-69
2022/07/28 14:23:07;;;;;;;2.53;0.70;;;;;;;;;;5036264;28;20256;-71
2022/07/28 14:25:32;;;;;;;4.30;1.27;;;;;;;;;;5047981;28;20225;-70
2022/07/28 14:27:58;;;;;;;3.55;0.90;;;;;;;;;;5046754;28;20215;-70
2022/07/28 14:30:24;;;;;;;3.20;0.90;;;;;;;;;;5030221;28;20219;-70
2022/07/28 14:32:50;;;;;;;3.72;1.00;;;;;;;;;;5046145;28;20365;-69
2022/07/28 14:35:15;;;;;;;5.03;1.35;;;;;;;;;;5039377;28;20325;-68
2022/07/28 14:37:41;;;;;;;4.30;1.05;;;;;;;;;;5039794;28;20215;-69